Time;durP1;ratioP1;P1;durP2;ratioP2;P2;SDS_P1;SDS_P2;PMS_P1;PMS_P2;Temp;Humidity;BMP_temperature;BMP_pressure;BME280_temperature;BME280_humidity;BME280_pressure;Samples;Min_cycle;Max_cycle;Signal;HPM_P1;HPM_P2
2021/06/27 00:00:27;;;;;;;8.98;8.20;;;20.60;99.90;;;;;;2089544;28;20028;-67
2021/06/27 00:01:27;;;;;;;9.15;8.25;;;20.60;99.90;;;;;;2089591;28;20016;-68
2021/06/27 00:02:28;;;;;;;8.90;8.10;;;20.60;99.90;;;;;;2089286;28;20052;-68
2021/06/27 00:03:28;;;;;;;9.95;8.98;;;20.60;99.90;;;;;;2089699;28;20024;-68
2021/06/27 00:04:29;;;;;;;8.73;8.00;;;20.60;99.90;;;;;;2089409;28;20021;-67
2021/06/27 00:05:31;;;;;;;9.27;8.38;;;20.60;99.90;;;;;;2089813;28;20029;-67
2021/06/27 00:06:32;;;;;;;9.15;8.25;;;20.60;99.90;;;;;;2089813;28;20075;-67
2021/06/27 00:07:33;;;;;;;9.52;8.63;;;20.60;99.90;;;;;;2097162;28;20032;-68
2021/06/27 00:08:34;;;;;;;9.55;8.68;;;20.60;99.90;;;;;;2097171;28;20025;-68
2021/06/27 00:09:35;;;;;;;9.90;9.00;;;20.60;99.90;;;;;;2097130;28;20024;-68
2021/06/27 00:10:41;;;;;;;9.70;8.70;;;20.50;99.90;;;;;;2097271;28;20028;-68
2021/06/27 00:11:42;;;;;;;11.90;8.82;;;20.50;99.90;;;;;;2089176;28;20021;-68
2021/06/27 00:12:43;;;;;;;9.57;8.68;;;20.50;99.90;;;;;;2097164;28;20020;-68
2021/06/27 00:13:46;;;;;;;10.57;8.57;;;20.50;99.90;;;;;;2096873;28;20488;-68
2021/06/27 00:14:46;;;;;;;13.30;8.77;;;20.50;99.90;;;;;;2089092;28;20423;-67
2021/06/27 00:15:49;;;;;;;9.48;8.48;;;20.50;99.90;;;;;;2089774;28;20029;-67
2021/06/27 00:16:52;;;;;;;10.45;9.45;;;20.50;99.90;;;;;;2088867;28;20031;-67
2021/06/27 00:17:53;;;;;;;9.95;9.13;;;20.50;99.90;;;;;;2088801;28;20092;-68
2021/06/27 00:18:55;;;;;;;9.73;8.68;;;20.50;99.90;;;;;;2089967;28;20091;-68
2021/06/27 00:19:56;;;;;;;9.82;8.93;;;20.50;99.90;;;;;;2089908;28;20025;-67
2021/06/27 00:20:59;;;;;;;10.60;9.70;;;20.40;99.90;;;;;;2089636;28;20124;-67
2021/06/27 00:22:00;;;;;;;9.80;8.85;;;20.40;99.90;;;;;;2080702;28;20029;-67
2021/06/27 00:23:01;;;;;;;8.50;7.70;;;20.40;99.90;;;;;;2084665;28;20052;-68
2021/06/27 00:24:01;;;;;;;9.60;8.63;;;20.40;99.90;;;;;;2096899;28;20119;-68
2021/06/27 00:25:05;;;;;;;9.60;8.77;;;20.30;99.90;;;;;;2096997;28;20025;-67
2021/06/27 00:26:08;;;;;;;10.25;8.93;;;20.40;99.90;;;;;;2089332;28;20025;-67
2021/06/27 00:27:09;;;;;;;9.25;8.35;;;20.30;99.90;;;;;;2089435;28;20561;-67
2021/06/27 00:28:10;;;;;;;9.13;8.32;;;20.30;99.90;;;;;;2089760;28;20481;-67
2021/06/27 00:29:11;;;;;;;9.35;8.38;;;20.30;99.90;;;;;;2089543;28;20021;-68
2021/06/27 00:30:12;;;;;;;9.10;8.30;;;20.30;99.90;;;;;;2089183;28;20040;-68
2021/06/27 00:31:14;;;;;;;10.80;8.80;;;20.30;99.90;;;;;;2089484;28;20056;-68
2021/06/27 00:32:14;;;;;;;9.25;8.07;;;20.20;99.90;;;;;;2088981;28;20032;-67
2021/06/27 00:33:15;;;;;;;9.32;8.43;;;20.30;99.90;;;;;;2089497;28;20048;-68
2021/06/27 00:34:15;;;;;;;9.10;8.25;;;20.20;99.90;;;;;;2089351;28;20086;-67
2021/06/27 00:35:18;;;;;;;9.35;8.45;;;20.20;99.90;;;;;;2089516;28;20364;-67
2021/06/27 00:36:19;;;;;;;9.07;8.27;;;20.20;99.90;;;;;;2096736;28;20024;-68
2021/06/27 00:37:20;;;;;;;8.90;8.00;;;20.20;99.90;;;;;;2097251;28;20546;-67
2021/06/27 00:38:20;;;;;;;9.10;8.30;;;20.20;99.90;;;;;;2089439;28;20029;-67
2021/06/27 00:39:21;;;;;;;8.23;7.45;;;20.20;99.90;;;;;;2089723;28;20044;-67
2021/06/27 00:40:24;;;;;;;8.63;7.75;;;20.20;99.90;;;;;;2088802;28;20053;-67
2021/06/27 00:41:26;;;;;;;9.27;8.38;;;20.20;99.90;;;;;;2089083;28;20475;-68
2021/06/27 00:42:33;;;;;;;9.13;8.35;;;20.20;99.90;;;;;;2089182;28;20021;-68
2021/06/27 00:43:34;;;;;;;10.23;8.40;;;20.20;99.90;;;;;;2089515;28;20021;-67
2021/06/27 00:44:34;;;;;;;11.18;8.35;;;20.20;99.90;;;;;;2089249;28;20035;-68
2021/06/27 00:45:37;;;;;;;9.73;8.65;;;20.10;99.90;;;;;;2089261;28;20279;-68
2021/06/27 00:46:53;;;;;;;9.30;8.32;;;20.20;99.90;;;;;;2089109;28;20086;-68
2021/06/27 00:47:54;;;;;;;7.97;7.20;;;20.20;99.90;;;;;;2089417;28;20025;-68
2021/06/27 00:48:55;;;;;;;9.32;8.45;;;20.10;99.90;;;;;;2089289;28;20438;-68
2021/06/27 00:49:57;;;;;;;8.65;7.78;;;20.10;99.90;;;;;;2089112;28;20454;-68
2021/06/27 00:50:59;;;;;;;9.98;8.07;;;20.10;99.90;;;;;;2089191;28;20023;-68
2021/06/27 00:51:59;;;;;;;8.38;7.57;;;20.10;99.90;;;;;;2088744;28;20369;-68
2021/06/27 00:53:00;;;;;;;9.00;8.20;;;20.10;99.90;;;;;;2089472;28;20094;-68
2021/06/27 00:54:01;;;;;;;8.43;7.72;;;20.10;99.90;;;;;;2089542;28;20044;-68
2021/06/27 00:55:03;;;;;;;13.45;7.57;;;20.10;99.90;;;;;;2089084;28;20100;-67
2021/06/27 00:56:04;;;;;;;8.85;7.88;;;20.10;99.90;;;;;;2089079;28;20032;-67
2021/06/27 00:57:05;;;;;;;8.70;7.80;;;20.20;99.90;;;;;;2089362;28;20527;-68
2021/06/27 00:58:06;;;;;;;8.85;7.95;;;20.10;99.90;;;;;;2088763;28;20060;-68
2021/06/27 00:59:10;;;;;;;9.57;8.63;;;20.10;99.90;;;;;;2088568;28;20029;-68
2021/06/27 01:00:16;;;;;;;8.65;7.95;;;20.10;99.90;;;;;;2089804;28;20422;-68
2021/06/27 01:01:17;;;;;;;9.20;8.40;;;20.10;99.90;;;;;;2089247;28;20087;-68
2021/06/27 01:02:18;;;;;;;9.55;8.68;;;20.10;99.90;;;;;;2088759;28;20086;-68
2021/06/27 01:03:19;;;;;;;8.45;7.72;;;20.10;99.90;;;;;;2089066;28;20025;-68
2021/06/27 01:04:19;;;;;;;11.75;8.70;;;20.10;99.90;;;;;;2089321;28;20021;-68
2021/06/27 01:05:24;;;;;;;8.77;7.97;;;20.10;99.90;;;;;;2089142;28;20020;-68
2021/06/27 01:06:24;;;;;;;9.38;8.48;;;20.10;99.90;;;;;;2096900;28;20028;-67
2021/06/27 01:07:25;;;;;;;8.77;7.97;;;20.10;99.90;;;;;;2096315;28;20025;-68
2021/06/27 01:08:26;;;;;;;9.23;8.43;;;20.10;99.90;;;;;;2089318;28;20021;-68
2021/06/27 01:09:29;;;;;;;10.75;8.73;;;20.00;99.90;;;;;;2089151;28;20052;-68
2021/06/27 01:10:31;;;;;;;9.05;8.15;;;20.00;99.90;;;;;;2089270;28;20024;-68
2021/06/27 01:11:32;;;;;;;8.77;8.07;;;20.00;99.90;;;;;;2088258;28;20112;-68
2021/06/27 01:12:33;;;;;;;9.82;9.00;;;20.00;99.90;;;;;;2089443;28;20103;-68
2021/06/27 01:13:35;;;;;;;9.10;8.30;;;20.00;99.90;;;;;;2084237;28;20496;-68
2021/06/27 01:14:38;;;;;;;11.00;8.13;;;20.10;99.90;;;;;;2080662;28;20021;-68
2021/06/27 01:15:39;;;;;;;9.73;8.75;;;20.00;99.90;;;;;;2091591;28;20031;-68
2021/06/27 01:16:41;;;;;;;9.73;8.65;;;20.00;99.90;;;;;;2092436;28;20025;-68
2021/06/27 01:17:43;;;;;;;10.35;9.02;;;20.00;99.90;;;;;;2094084;28;20372;-68
2021/06/27 01:18:44;;;;;;;9.27;8.48;;;20.00;99.90;;;;;;2089993;28;20033;-68
2021/06/27 01:19:44;;;;;;;9.45;8.55;;;20.00;99.90;;;;;;2088751;28;20028;-68
2021/06/27 01:20:46;;;;;;;9.88;8.88;;;20.00;99.90;;;;;;2089377;28;20025;-68
2021/06/27 01:21:53;;;;;;;10.05;9.05;;;20.00;99.90;;;;;;2088466;28;20032;-68
2021/06/27 01:22:55;;;;;;;9.20;8.30;;;20.00;99.90;;;;;;2089309;28;20499;-68
2021/06/27 01:23:55;;;;;;;9.23;8.43;;;19.90;99.90;;;;;;2089140;28;20055;-68
2021/06/27 01:24:56;;;;;;;9.95;8.75;;;19.90;99.90;;;;;;2089375;28;20462;-68
2021/06/27 01:25:56;;;;;;;9.63;8.68;;;19.90;99.90;;;;;;2088743;28;20044;-68
2021/06/27 01:26:57;;;;;;;10.85;9.30;;;19.90;99.90;;;;;;2088852;28;20159;-68
2021/06/27 01:27:59;;;;;;;11.93;9.10;;;19.90;99.90;;;;;;2089100;28;20025;-68
2021/06/27 01:29:00;;;;;;;9.30;8.40;;;19.90;99.90;;;;;;2097159;28;20016;-68
2021/06/27 01:30:12;;;;;;;9.63;8.65;;;19.90;99.90;;;;;;2096193;28;20066;-67
2021/06/27 01:31:12;;;;;;;10.60;8.93;;;19.90;99.90;;;;;;2089221;28;20021;-68
2021/06/27 01:32:13;;;;;;;9.85;8.85;;;19.90;99.90;;;;;;2088578;28;20041;-68
2021/06/27 01:33:17;;;;;;;9.57;8.68;;;19.90;99.90;;;;;;2089316;28;20025;-67
2021/06/27 01:34:18;;;;;;;10.07;8.63;;;19.80;99.90;;;;;;2088938;28;20021;-67
2021/06/27 01:35:21;;;;;;;9.25;8.45;;;19.90;99.90;;;;;;2089222;28;20035;-67
2021/06/27 01:36:22;;;;;;;9.60;8.70;;;19.80;99.90;;;;;;2088917;28;20025;-68
2021/06/27 01:37:23;;;;;;;9.68;8.85;;;19.80;99.90;;;;;;2089256;28;20017;-68
2021/06/27 01:38:27;;;;;;;9.20;8.10;;;19.80;99.90;;;;;;2089158;28;20033;-68
2021/06/27 01:39:27;;;;;;;8.98;8.20;;;19.80;99.90;;;;;;2089124;28;20033;-68
2021/06/27 01:40:29;;;;;;;9.30;8.38;;;19.80;99.90;;;;;;2089025;28;20078;-68
2021/06/27 01:41:30;;;;;;;9.45;8.65;;;19.80;99.90;;;;;;2088422;28;20460;-68
2021/06/27 01:42:31;;;;;;;9.80;8.90;;;19.80;99.90;;;;;;2088868;28;20048;-68
2021/06/27 01:43:32;;;;;;;9.30;8.40;;;19.80;99.90;;;;;;2089384;28;20025;-68
2021/06/27 01:44:32;;;;;;;9.57;8.68;;;19.80;99.90;;;;;;2088969;28;20031;-68
2021/06/27 01:45:33;;;;;;;14.35;9.27;;;19.80;99.90;;;;;;2089163;28;20025;-67
2021/06/27 01:46:39;;;;;;;10.40;8.98;;;19.80;99.90;;;;;;2088921;28;20079;-68
2021/06/27 01:47:41;;;;;;;9.30;8.40;;;19.80;99.90;;;;;;2089054;28;20463;-68
2021/06/27 01:48:44;;;;;;;9.65;8.52;;;19.80;99.90;;;;;;2089236;28;20057;-68
2021/06/27 01:49:47;;;;;;;9.50;8.70;;;19.80;99.90;;;;;;2088895;28;20132;-68
2021/06/27 01:50:50;;;;;;;9.80;8.90;;;19.70;99.90;;;;;;2088768;28;20028;-68
2021/06/27 01:51:52;;;;;;;9.02;8.23;;;19.70;99.90;;;;;;2088202;28;20025;-68
2021/06/27 01:52:53;;;;;;;9.95;8.98;;;19.70;99.90;;;;;;2089041;28;20022;-67
2021/06/27 01:53:54;;;;;;;10.40;9.30;;;19.70;99.90;;;;;;2089114;28;20032;-68
2021/06/27 01:54:54;;;;;;;9.18;8.43;;;19.80;99.90;;;;;;2088862;28;20032;-68
2021/06/27 01:56:06;;;;;;;10.50;9.20;;;19.70;99.90;;;;;;2089158;28;20095;-68
2021/06/27 01:57:06;;;;;;;8.98;8.18;;;19.70;99.90;;;;;;2088872;28;20108;-68
2021/06/27 01:58:08;;;;;;;10.52;8.85;;;19.70;99.90;;;;;;2089254;28;20419;-67
2021/06/27 01:59:09;;;;;;;9.20;8.30;;;19.70;99.90;;;;;;2088539;28;20495;-68
2021/06/27 02:00:10;;;;;;;9.43;8.60;;;19.70;99.90;;;;;;2089145;28;20452;-67
2021/06/27 02:01:15;;;;;;;8.77;7.95;;;19.70;99.90;;;;;;2089047;28;20029;-67
2021/06/27 02:02:17;;;;;;;9.43;8.52;;;19.70;99.90;;;;;;2088468;28;20375;-68
2021/06/27 02:03:18;;;;;;;9.43;8.63;;;19.70;99.90;;;;;;2088816;28;20028;-68
2021/06/27 02:04:18;;;;;;;9.48;8.68;;;19.70;99.90;;;;;;2088963;28;20025;-67
2021/06/27 02:05:19;;;;;;;9.68;8.77;;;19.70;99.90;;;;;;2088923;28;20698;-67
2021/06/27 02:06:21;;;;;;;10.90;9.10;;;19.60;99.90;;;;;;2088981;28;20033;-67
2021/06/27 02:07:22;;;;;;;9.57;8.40;;;19.60;99.90;;;;;;2088768;28;20535;-68
2021/06/27 02:08:22;;;;;;;10.15;9.05;;;19.60;99.90;;;;;;2089141;28;20498;-68
2021/06/27 02:09:23;;;;;;;10.10;9.20;;;19.60;99.90;;;;;;2088786;28;20461;-68
2021/06/27 02:10:26;;;;;;;10.32;8.80;;;19.60;99.90;;;;;;2090310;28;20036;-68
2021/06/27 02:11:28;;;;;;;10.95;8.80;;;19.60;99.90;;;;;;2089976;28;20029;-68
2021/06/27 02:12:31;;;;;;;9.13;8.23;;;19.60;99.90;;;;;;2090390;28;20036;-68
2021/06/27 02:13:33;;;;;;;9.35;8.45;;;19.60;99.90;;;;;;2090473;28;20021;-68
2021/06/27 02:14:33;;;;;;;10.25;9.25;;;19.60;99.90;;;;;;2090641;28;20036;-67
2021/06/27 02:15:34;;;;;;;8.98;8.05;;;19.60;99.90;;;;;;2082130;28;20105;-68
2021/06/27 02:16:35;;;;;;;10.73;9.73;;;19.60;99.90;;;;;;2086099;28;20017;-68
2021/06/27 02:17:36;;;;;;;10.05;9.07;;;19.60;99.90;;;;;;2090583;28;20047;-68
2021/06/27 02:18:40;;;;;;;9.45;8.50;;;19.60;99.90;;;;;;2090462;28;20029;-68
2021/06/27 02:19:51;;;;;;;9.88;8.88;;;19.60;99.90;;;;;;2089844;28;20114;-68
2021/06/27 02:20:53;;;;;;;10.02;9.13;;;19.50;99.90;;;;;;2090840;28;20025;-68
2021/06/27 02:21:54;;;;;;;8.98;8.15;;;19.60;99.90;;;;;;2089791;28;20032;-67
2021/06/27 02:22:54;;;;;;;9.93;8.90;;;19.50;99.90;;;;;;2090480;28;20036;-68
2021/06/27 02:23:56;;;;;;;9.23;8.32;;;19.50;99.90;;;;;;2090296;28;20090;-68
2021/06/27 02:24:57;;;;;;;9.52;8.63;;;19.50;99.90;;;;;;2090341;28;20098;-68
2021/06/27 02:25:58;;;;;;;9.18;8.35;;;19.50;99.90;;;;;;2090350;28;20025;-68
2021/06/27 02:27:00;;;;;;;9.80;8.95;;;19.50;99.90;;;;;;2090364;28;20043;-68
2021/06/27 02:28:00;;;;;;;10.02;8.82;;;19.50;99.90;;;;;;2090198;28;20021;-68
2021/06/27 02:29:03;;;;;;;9.27;8.13;;;19.60;99.90;;;;;;2090684;28;20040;-68
2021/06/27 02:30:07;;;;;;;10.18;9.15;;;19.50;99.90;;;;;;2089976;28;20511;-68
2021/06/27 02:31:08;;;;;;;10.10;9.15;;;19.60;99.90;;;;;;2090178;28;20029;-68
2021/06/27 02:32:09;;;;;;;9.55;8.60;;;19.50;99.90;;;;;;2089732;28;20163;-68
2021/06/27 02:33:10;;;;;;;9.50;8.68;;;19.50;99.90;;;;;;2090508;28;20021;-68
2021/06/27 02:34:10;;;;;;;10.45;9.45;;;19.50;99.90;;;;;;2090190;28;20021;-68
2021/06/27 02:35:11;;;;;;;9.32;8.43;;;19.50;99.90;;;;;;2090343;28;20036;-68
2021/06/27 02:36:12;;;;;;;12.63;8.68;;;19.50;99.90;;;;;;2090129;28;20029;-68
2021/06/27 02:37:13;;;;;;;9.95;8.95;;;19.50;99.90;;;;;;2090482;28;20025;-67
2021/06/27 02:38:14;;;;;;;9.82;8.45;;;19.50;99.90;;;;;;2090219;28;20021;-68
2021/06/27 02:39:15;;;;;;;9.57;8.57;;;19.50;99.90;;;;;;2090290;28;20096;-68
2021/06/27 02:40:15;;;;;;;10.18;9.32;;;19.40;99.90;;;;;;2089947;28;20017;-68
2021/06/27 02:41:19;;;;;;;8.70;7.82;;;19.40;99.90;;;;;;2090416;28;20029;-68
2021/06/27 02:42:19;;;;;;;9.88;8.98;;;19.50;99.90;;;;;;2089557;28;20029;-68
2021/06/27 02:43:20;;;;;;;9.88;9.02;;;19.40;99.90;;;;;;2090384;28;20490;-67
2021/06/27 02:44:20;;;;;;;9.57;8.68;;;19.40;99.90;;;;;;2090060;28;20028;-68
2021/06/27 02:45:21;;;;;;;8.52;7.72;;;19.40;99.90;;;;;;2090305;28;20029;-68
2021/06/27 02:46:22;;;;;;;9.23;8.38;;;19.40;99.90;;;;;;2090169;28;20059;-68
2021/06/27 02:47:23;;;;;;;9.65;8.75;;;19.40;99.90;;;;;;2090333;28;20032;-68
2021/06/27 02:48:23;;;;;;;8.13;7.40;;;19.40;99.90;;;;;;2090549;28;20032;-68
2021/06/27 02:49:24;;;;;;;9.77;8.77;;;19.40;99.90;;;;;;2090184;28;20155;-68
2021/06/27 02:50:25;;;;;;;9.80;8.68;;;19.40;99.90;;;;;;2090452;28;20052;-67
2021/06/27 02:51:26;;;;;;;9.93;8.32;;;19.40;99.90;;;;;;2089818;28;20022;-68
2021/06/27 02:52:26;;;;;;;9.23;8.30;;;19.40;99.90;;;;;;2089548;28;20017;-68
2021/06/27 02:53:27;;;;;;;9.77;8.70;;;19.40;99.90;;;;;;2090187;28;20518;-68
2021/06/27 02:54:27;;;;;;;10.05;8.23;;;19.40;99.90;;;;;;2090202;28;20021;-68
2021/06/27 02:55:28;;;;;;;9.00;8.23;;;19.40;99.90;;;;;;2090094;28;20021;-68
2021/06/27 02:56:29;;;;;;;9.55;8.65;;;19.40;99.90;;;;;;2090381;28;20021;-68
2021/06/27 02:57:29;;;;;;;9.10;8.27;;;19.40;99.90;;;;;;2089988;28;20032;-68
2021/06/27 02:58:30;;;;;;;9.57;8.68;;;19.40;99.90;;;;;;2089886;28;20086;-68
2021/06/27 02:59:31;;;;;;;9.07;8.20;;;19.30;99.90;;;;;;2090178;28;20025;-68
2021/06/27 03:00:32;;;;;;;8.30;7.50;;;19.40;99.90;;;;;;2089993;28;20119;-68
2021/06/27 03:01:32;;;;;;;9.93;9.02;;;19.40;99.90;;;;;;2089383;28;20465;-68
2021/06/27 03:02:33;;;;;;;10.43;8.82;;;19.30;99.90;;;;;;2090307;28;20495;-69
2021/06/27 03:03:34;;;;;;;9.73;8.73;;;19.40;99.90;;;;;;2090189;28;20044;-68
2021/06/27 03:04:37;;;;;;;9.13;8.35;;;19.30;99.90;;;;;;2090159;28;20074;-68
2021/06/27 03:05:38;;;;;;;10.25;8.60;;;19.30;99.90;;;;;;2089987;28;20400;-68
2021/06/27 03:06:38;;;;;;;9.48;8.57;;;19.30;99.90;;;;;;2090060;28;20025;-68
2021/06/27 03:07:40;;;;;;;9.70;8.88;;;19.30;99.90;;;;;;2090199;28;20468;-68
2021/06/27 03:08:41;;;;;;;8.90;8.18;;;19.30;99.90;;;;;;2090187;28;20009;-68
2021/06/27 03:09:42;;;;;;;9.43;8.52;;;19.30;99.90;;;;;;2089786;28;20025;-68
2021/06/27 03:10:42;;;;;;;9.05;8.25;;;19.30;99.90;;;;;;2090275;28;20092;-68
2021/06/27 03:11:44;;;;;;;9.95;9.02;;;19.30;99.90;;;;;;2089319;28;20064;-68
2021/06/27 03:12:47;;;;;;;9.20;8.32;;;19.20;99.90;;;;;;2089971;28;20001;-68
2021/06/27 03:13:48;;;;;;;9.55;8.57;;;19.20;99.90;;;;;;2089779;28;20021;-67
2021/06/27 03:14:48;;;;;;;10.27;9.25;;;19.20;99.90;;;;;;2090041;28;20055;-68
2021/06/27 03:15:49;;;;;;;10.02;9.02;;;19.20;99.90;;;;;;2095637;28;20029;-67
2021/06/27 03:16:49;;;;;;;8.85;8.15;;;19.20;99.90;;;;;;2092159;28;20389;-67
2021/06/27 03:17:50;;;;;;;9.85;8.88;;;19.20;99.90;;;;;;2095231;28;20115;-68
2021/06/27 03:18:50;;;;;;;9.13;8.20;;;19.20;99.90;;;;;;2090296;28;20496;-68
2021/06/27 03:19:51;;;;;;;9.60;8.23;;;19.20;99.90;;;;;;2089807;28;20546;-68
2021/06/27 03:20:52;;;;;;;9.65;8.75;;;19.20;99.90;;;;;;2097235;28;20040;-68
2021/06/27 03:21:52;;;;;;;8.55;7.72;;;19.20;99.90;;;;;;2096162;28;20099;-68
2021/06/27 03:22:58;;;;;;;11.45;8.40;;;19.20;99.90;;;;;;2090061;28;20134;-67
2021/06/27 03:23:59;;;;;;;9.32;8.48;;;19.20;99.90;;;;;;2089819;28;20033;-68
2021/06/27 03:25:00;;;;;;;9.65;8.30;;;19.20;99.90;;;;;;2089782;28;20024;-68
2021/06/27 03:26:01;;;;;;;9.23;8.32;;;19.20;99.90;;;;;;2096031;28;20032;-68
2021/06/27 03:27:01;;;;;;;10.52;8.93;;;19.20;99.90;;;;;;2097849;28;20036;-68
2021/06/27 03:28:03;;;;;;;8.63;7.65;;;19.20;99.90;;;;;;2090362;28;20689;-68
2021/06/27 03:29:04;;;;;;;10.20;8.98;;;19.20;99.90;;;;;;2089992;28;20721;-68
2021/06/27 03:30:06;;;;;;;8.88;8.07;;;19.20;99.90;;;;;;2090037;28;20025;-68
2021/06/27 03:31:07;;;;;;;10.75;9.18;;;19.20;99.90;;;;;;2089974;28;20024;-68
2021/06/27 03:32:08;;;;;;;9.20;8.40;;;19.20;99.90;;;;;;2089119;28;20499;-68
2021/06/27 03:33:10;;;;;;;9.65;8.65;;;19.20;99.90;;;;;;2090103;28;20021;-68
2021/06/27 03:34:10;;;;;;;9.13;8.23;;;19.20;99.90;;;;;;2089943;28;20358;-68
2021/06/27 03:35:11;;;;;;;8.88;8.07;;;19.20;99.90;;;;;;2089680;28;20078;-68
2021/06/27 03:36:11;;;;;;;7.97;7.28;;;19.20;99.90;;;;;;2089873;28;20016;-68
2021/06/27 03:37:12;;;;;;;9.15;8.35;;;19.20;99.90;;;;;;2089865;28;20048;-68
2021/06/27 03:38:23;;;;;;;9.63;8.75;;;19.20;99.90;;;;;;2081985;28;20032;-68
2021/06/27 03:39:24;;;;;;;9.07;8.27;;;19.20;99.90;;;;;;2086178;28;20383;-68
2021/06/27 03:40:24;;;;;;;9.18;8.38;;;19.20;99.90;;;;;;2090181;28;20033;-68
2021/06/27 03:41:25;;;;;;;8.95;8.05;;;19.10;99.90;;;;;;2089379;28;20025;-68
2021/06/27 03:42:27;;;;;;;9.43;8.52;;;19.20;99.90;;;;;;2089614;28;20036;-68
2021/06/27 03:43:27;;;;;;;9.50;8.10;;;19.10;99.90;;;;;;2089736;28;20043;-68
2021/06/27 03:44:29;;;;;;;9.77;8.88;;;19.10;99.90;;;;;;2089549;28;20025;-68
2021/06/27 03:45:30;;;;;;;9.52;8.38;;;19.10;99.90;;;;;;2089612;28;20087;-68
2021/06/27 03:46:30;;;;;;;8.57;7.78;;;19.10;99.90;;;;;;2089942;28;20025;-68
2021/06/27 03:47:31;;;;;;;10.23;8.45;;;19.10;99.90;;;;;;2089464;28;20031;-68
2021/06/27 03:48:31;;;;;;;9.18;8.27;;;19.10;99.90;;;;;;2089801;28;20052;-68
2021/06/27 03:49:32;;;;;;;9.23;8.25;;;19.10;99.90;;;;;;2089758;28;20055;-68
2021/06/27 03:50:33;;;;;;;7.78;7.13;;;19.10;99.90;;;;;;2089892;28;20028;-68
2021/06/27 03:51:34;;;;;;;9.10;8.20;;;19.10;99.90;;;;;;2089139;28;20041;-68
2021/06/27 03:52:35;;;;;;;9.00;8.02;;;19.10;99.90;;;;;;2089496;28;20653;-68
2021/06/27 03:53:35;;;;;;;8.65;7.85;;;19.10;99.90;;;;;;2089776;28;20166;-67
2021/06/27 03:54:36;;;;;;;8.77;7.88;;;19.10;99.90;;;;;;2089769;28;20037;-68
2021/06/27 03:55:36;;;;;;;9.48;8.57;;;19.10;99.90;;;;;;2089532;28;20021;-68
2021/06/27 03:56:37;;;;;;;9.27;8.38;;;19.10;99.90;;;;;;2089732;28;20051;-68
2021/06/27 03:57:38;;;;;;;9.00;8.10;;;19.10;99.90;;;;;;2089649;28;20047;-68
2021/06/27 03:58:38;;;;;;;9.77;8.32;;;19.10;99.90;;;;;;2089794;28;20032;-68
2021/06/27 03:59:39;;;;;;;8.50;7.57;;;19.10;99.90;;;;;;2089563;28;20547;-68
2021/06/27 04:00:40;;;;;;;9.15;8.35;;;19.10;99.90;;;;;;2089972;28;20199;-68
2021/06/27 04:01:40;;;;;;;9.40;8.35;;;19.10;99.90;;;;;;2089030;28;20036;-68
2021/06/27 04:02:41;;;;;;;10.20;8.23;;;19.10;99.90;;;;;;2089586;28;20029;-68
2021/06/27 04:03:42;;;;;;;11.18;7.82;;;19.20;99.90;;;;;;2089530;28;20032;-68
2021/06/27 04:04:43;;;;;;;8.73;7.80;;;19.20;99.90;;;;;;2089768;28;20025;-68
2021/06/27 04:05:44;;;;;;;7.95;7.30;;;19.20;99.90;;;;;;2089457;28;20037;-68
2021/06/27 04:06:44;;;;;;;8.25;7.47;;;19.20;99.90;;;;;;2089717;28;20531;-68
2021/06/27 04:07:45;;;;;;;8.93;8.13;;;19.30;99.90;;;;;;2089481;28;20079;-68
2021/06/27 04:08:45;;;;;;;9.00;8.10;;;19.30;99.90;;;;;;2089885;28;20039;-68
2021/06/27 04:09:46;;;;;;;9.63;7.93;;;19.30;99.90;;;;;;2089473;28;20032;-68
2021/06/27 04:10:46;;;;;;;8.38;7.57;;;19.40;99.90;;;;;;2089729;28;20021;-68
2021/06/27 04:11:47;;;;;;;8.40;7.60;;;19.40;99.90;;;;;;2088994;28;20029;-68
2021/06/27 04:12:47;;;;;;;8.55;7.47;;;19.50;99.90;;;;;;2089285;28;20667;-68
2021/06/27 04:13:48;;;;;;;7.65;7.05;;;19.50;99.90;;;;;;2089311;28;20044;-68
2021/06/27 04:14:50;;;;;;;7.88;7.07;;;19.60;99.90;;;;;;2089241;28;20071;-68
2021/06/27 04:15:51;;;;;;;8.52;7.65;;;19.70;99.90;;;;;;2089997;28;20498;-68
2021/06/27 04:16:51;;;;;;;8.85;7.35;;;19.80;99.90;;;;;;2089344;28;20558;-68
2021/06/27 04:17:52;;;;;;;9.02;8.18;;;20.00;99.90;;;;;;2089601;28;20110;-68
2021/06/27 04:18:52;;;;;;;8.50;7.70;;;20.30;99.90;;;;;;2097032;28;20028;-68
2021/06/27 04:19:53;;;;;;;8.35;7.55;;;20.50;99.90;;;;;;2097207;28;20032;-68
2021/06/27 04:20:54;;;;;;;7.85;7.10;;;20.70;99.90;;;;;;2089501;28;20024;-68
2021/06/27 04:21:55;;;;;;;8.32;7.55;;;20.90;99.90;;;;;;2089081;28;20373;-68
2021/06/27 04:22:55;;;;;;;9.13;7.38;;;21.10;99.90;;;;;;2096772;28;20132;-68
2021/06/27 04:23:56;;;;;;;9.07;8.18;;;21.30;99.90;;;;;;2097338;28;20025;-68
2021/06/27 04:24:57;;;;;;;8.93;8.10;;;21.50;99.40;;;;;;2089208;28;20029;-68
2021/06/27 04:25:57;;;;;;;7.85;7.05;;;21.70;98.80;;;;;;2089334;28;20428;-68
2021/06/27 04:26:58;;;;;;;8.07;7.28;;;21.80;98.50;;;;;;2089467;28;20036;-68
2021/06/27 04:27:59;;;;;;;8.48;7.68;;;22.00;98.10;;;;;;2089493;28;20469;-68
2021/06/27 04:28:59;;;;;;;7.75;7.10;;;22.10;97.90;;;;;;2097001;28;20434;-68
2021/06/27 04:30:00;;;;;;;8.07;7.25;;;22.20;97.50;;;;;;2097237;28;20017;-68
2021/06/27 04:31:01;;;;;;;7.88;7.18;;;22.20;98.10;;;;;;2089092;28;20030;-68
2021/06/27 04:32:02;;;;;;;7.85;6.68;;;22.20;98.10;;;;;;2088910;28;20109;-68
2021/06/27 04:33:05;;;;;;;7.68;6.93;;;22.20;97.40;;;;;;2088821;28;20027;-68
2021/06/27 04:34:06;;;;;;;8.30;6.85;;;22.20;97.40;;;;;;2089672;28;20027;-68
2021/06/27 04:35:07;;;;;;;8.10;7.40;;;22.20;97.70;;;;;;2089445;28;20044;-68
2021/06/27 04:36:08;;;;;;;7.68;7.07;;;22.20;98.50;;;;;;2089478;28;20021;-68
2021/06/27 04:37:08;;;;;;;9.32;7.45;;;22.20;98.20;;;;;;2089402;28;20745;-68
2021/06/27 04:38:12;;;;;;;7.93;7.22;;;22.20;98.40;;;;;;2089466;28;20086;-68
2021/06/27 04:39:15;;;;;;;7.72;6.78;;;22.20;98.50;;;;;;2089411;28;20029;-68
2021/06/27 04:40:16;;;;;;;8.15;7.45;;;22.30;99.30;;;;;;2089601;28;20029;-68
2021/06/27 04:41:16;;;;;;;6.82;6.03;;;22.30;98.70;;;;;;2089229;28;20111;-68
2021/06/27 04:42:17;;;;;;;7.68;6.97;;;22.30;98.50;;;;;;2088556;28;20402;-68
2021/06/27 04:43:18;;;;;;;7.88;6.20;;;22.40;99.40;;;;;;2089177;28;20029;-68
2021/06/27 04:44:18;;;;;;;7.35;6.68;;;22.40;99.10;;;;;;2089488;28;20392;-68
2021/06/27 04:45:20;;;;;;;7.35;6.68;;;22.50;99.30;;;;;;2089207;28;20029;-68
2021/06/27 04:46:20;;;;;;;7.65;6.97;;;22.50;98.50;;;;;;2089592;28;20460;-68
2021/06/27 04:47:21;;;;;;;8.65;6.38;;;22.60;98.80;;;;;;2089268;28;20472;-68
2021/06/27 04:48:21;;;;;;;7.75;7.05;;;22.70;98.40;;;;;;2089464;28;20025;-68
2021/06/27 04:49:22;;;;;;;6.72;6.22;;;22.70;98.00;;;;;;2089360;28;20108;-68
2021/06/27 04:50:23;;;;;;;7.72;6.50;;;22.70;97.70;;;;;;2089422;28;20028;-68
2021/06/27 04:51:23;;;;;;;7.93;6.63;;;22.70;96.90;;;;;;2089137;28;20036;-68
2021/06/27 04:52:24;;;;;;;6.97;6.35;;;22.70;96.60;;;;;;2089222;28;20025;-68
2021/06/27 04:53:24;;;;;;;6.55;6.00;;;22.70;96.70;;;;;;2089329;28;20049;-68
2021/06/27 04:54:25;;;;;;;6.32;5.82;;;22.80;97.70;;;;;;2089033;28;20098;-68
2021/06/27 04:55:25;;;;;;;6.50;6.00;;;22.80;97.30;;;;;;2089214;28;20512;-68
2021/06/27 04:56:26;;;;;;;7.15;6.25;;;22.80;97.30;;;;;;2089208;28;20038;-68
2021/06/27 04:57:26;;;;;;;6.63;6.05;;;22.80;97.50;;;;;;2089529;28;20028;-68
2021/06/27 04:58:27;;;;;;;6.07;5.57;;;22.80;97.50;;;;;;2089089;28;20032;-68
2021/06/27 04:59:28;;;;;;;6.93;6.25;;;22.80;96.40;;;;;;2089361;28;20021;-68
2021/06/27 05:00:29;;;;;;;6.03;5.55;;;22.80;96.30;;;;;;2089155;28;20025;-68
2021/06/27 05:01:30;;;;;;;7.28;6.38;;;22.90;96.20;;;;;;2089097;28;20021;-68
2021/06/27 05:02:31;;;;;;;6.90;6.30;;;22.90;97.20;;;;;;2089089;28;20124;-68
2021/06/27 05:03:31;;;;;;;8.43;6.65;;;22.90;97.00;;;;;;2089227;28;20083;-68
2021/06/27 05:04:32;;;;;;;8.02;7.32;;;22.90;96.80;;;;;;2089037;28;20032;-68
2021/06/27 05:05:32;;;;;;;7.22;6.63;;;22.90;96.30;;;;;;2089363;28;20435;-68
2021/06/27 05:06:33;;;;;;;7.55;6.55;;;22.90;96.10;;;;;;2089169;28;20048;-68
2021/06/27 05:07:33;;;;;;;7.57;6.88;;;22.90;95.00;;;;;;2089387;28;20024;-68
2021/06/27 05:08:34;;;;;;;10.05;7.72;;;22.90;94.70;;;;;;2089259;28;20108;-68
2021/06/27 05:09:35;;;;;;;7.97;7.18;;;22.90;95.90;;;;;;2089314;28;20025;-68
2021/06/27 05:10:35;;;;;;;8.00;7.30;;;22.90;96.00;;;;;;2089277;28;20017;-68
2021/06/27 05:11:36;;;;;;;7.72;6.63;;;22.90;96.40;;;;;;2088890;28;20029;-68
2021/06/27 05:12:37;;;;;;;8.10;7.30;;;22.90;96.50;;;;;;2089417;28;20032;-68
2021/06/27 05:13:37;;;;;;;9.10;7.05;;;22.90;96.90;;;;;;2088870;28;20047;-68
2021/06/27 05:14:38;;;;;;;7.68;6.97;;;22.80;96.40;;;;;;2088990;28;20021;-68
2021/06/27 05:15:38;;;;;;;7.15;6.45;;;22.90;96.40;;;;;;2089518;28;20528;-68
2021/06/27 05:16:39;;;;;;;8.15;7.43;;;22.80;95.50;;;;;;2089038;28;20408;-68
2021/06/27 05:17:39;;;;;;;8.32;7.50;;;22.80;95.80;;;;;;2089394;28;20036;-68
2021/06/27 05:18:40;;;;;;;7.50;6.80;;;22.90;96.60;;;;;;2088985;28;20078;-68